createdAt,value
2022-12-10T06:39:47.504Z,4.32
2022-12-10T06:42:15.991Z,4.46
2022-12-10T06:44:44.289Z,4.65
2022-12-10T06:47:13.230Z,4.80
2022-12-10T06:49:41.996Z,4.97
2022-12-10T06:52:10.530Z,5.15
2022-12-10T06:54:39.421Z,5.32
2022-12-10T06:57:08.002Z,5.46
2022-12-10T06:59:36.588Z,5.68
2022-12-10T07:02:05.429Z,5.94
2022-12-10T07:04:34.062Z,6.18
2022-12-10T07:07:08.037Z,6.39
2022-12-10T07:09:39.387Z,6.60
2022-12-10T07:12:07.807Z,6.83
2022-12-10T07:14:36.104Z,7.04
2022-12-10T07:17:06.713Z,7.05
2022-12-10T07:19:34.989Z,7.10
2022-12-10T07:22:03.370Z,7.12
2022-12-10T07:24:32.415Z,7.16
2022-12-10T07:27:00.846Z,7.19
2022-12-10T07:29:30.557Z,7.17
2022-12-10T07:31:59.346Z,7.15
2022-12-10T07:34:27.784Z,7.14
2022-12-10T07:36:56.244Z,7.12
2022-12-10T07:39:24.895Z,7.21
2022-12-10T07:41:53.787Z,7.29
2022-12-10T07:44:24.114Z,7.32
2022-12-10T07:46:54.177Z,7.43
2022-12-10T07:49:22.611Z,7.56
2022-12-10T07:51:51.333Z,7.68
2022-12-10T07:54:20.095Z,7.78
2022-12-10T07:56:48.781Z,7.83
2022-12-10T07:59:17.161Z,7.90
2022-12-10T08:01:45.841Z,7.99
2022-12-10T08:04:14.425Z,8.06
2022-12-10T08:06:42.744Z,8.12
2022-12-10T08:09:12.220Z,8.21
2022-12-10T08:11:40.455Z,8.31
2022-12-10T08:14:08.663Z,8.32
2022-12-10T08:16:37.307Z,8.32
2022-12-10T08:19:06.857Z,8.32
2022-12-10T08:21:35.336Z,8.24
2022-12-10T08:24:04.129Z,8.14
2022-12-10T08:26:33.591Z,8.07
2022-12-10T08:29:02.440Z,8.07
2022-12-10T08:31:35.786Z,8.15
2022-12-10T08:34:12.398Z,8.18
2022-12-10T08:36:41.081Z,8.26
2022-12-10T08:39:11.520Z,8.38
2022-12-10T08:41:39.885Z,8.63
2022-12-10T08:44:08.572Z,8.91
2022-12-10T08:46:36.954Z,9.19
2022-12-10T08:49:06.158Z,9.56
2022-12-10T08:51:34.636Z,10.05
2022-12-10T08:54:03.938Z,10.56
2022-12-10T08:56:33.030Z,10.97
2022-12-10T08:59:01.512Z,11.21
2022-12-10T09:01:30.041Z,11.14
2022-12-10T09:03:58.683Z,10.99
2022-12-10T09:06:27.118Z,10.91
2022-12-10T09:08:55.720Z,10.97
2022-12-10T09:11:25.736Z,11.20
2022-12-10T09:13:54.455Z,11.31
2022-12-10T09:16:29.189Z,11.32
2022-12-10T09:18:58.180Z,11.31
2022-12-10T09:21:26.761Z,11.23
2022-12-10T09:23:55.141Z,11.22
2022-12-10T09:26:23.933Z,11.21
2022-12-10T09:28:52.515Z,11.22
2022-12-10T09:31:21.395Z,11.25
2022-12-10T09:33:53.680Z,11.19
2022-12-10T09:36:22.878Z,11.08
2022-12-10T09:38:53.156Z,11.07
2022-12-10T09:41:33.956Z,11.14
2022-12-10T09:44:18.534Z,11.25
2022-12-10T09:46:52.136Z,11.34
2022-12-10T09:49:33.120Z,11.42
2022-12-10T09:52:03.812Z,11.48
2022-12-10T09:54:39.395Z,11.51
2022-12-10T09:57:08.495Z,11.58
2022-12-10T09:59:45.474Z,11.58
2022-12-10T10:02:16.916Z,11.50
2022-12-10T10:04:45.817Z,11.47
2022-12-10T10:07:28.741Z,11.50
2022-12-10T10:10:08.533Z,11.57
2022-12-10T10:12:39.164Z,11.72
2022-12-10T10:15:13.750Z,12.02
2022-12-10T10:17:46.752Z,12.36
2022-12-10T10:20:15.624Z,12.60
2022-12-10T10:22:44.618Z,12.72
2022-12-10T10:25:17.613Z,12.86
2022-12-10T10:27:46.181Z,13.11
2022-12-10T10:30:19.575Z,13.00
2022-12-10T10:32:52.755Z,12.79
2022-12-10T10:35:25.872Z,12.53
2022-12-10T10:37:59.372Z,12.36
2022-12-10T10:40:33.303Z,12.24
2022-12-10T10:43:02.377Z,12.04
2022-12-10T10:45:35.807Z,11.93
2022-12-10T10:48:06.432Z,11.99
2022-12-10T10:50:55.269Z,12.13
2022-12-10T10:53:24.832Z,12.28
2022-12-10T10:55:55.056Z,12.36
2022-12-10T10:58:24.680Z,12.39
2022-12-10T11:00:57.229Z,12.45
2022-12-10T11:03:26.409Z,12.48
2022-12-10T11:05:55.421Z,12.45
2022-12-10T11:08:25.889Z,12.32
2022-12-10T11:11:04.464Z,12.17
2022-12-10T11:13:34.771Z,12.12
2022-12-10T11:16:18.278Z,12.10
2022-12-10T11:18:56.706Z,12.14
2022-12-10T11:21:26.313Z,12.16
2022-12-10T11:23:56.128Z,12.20
2022-12-10T11:26:57.585Z,12.26
2022-12-10T11:29:35.383Z,12.32
2022-12-10T11:32:39.193Z,12.31
2022-12-10T11:35:13.008Z,12.32
2022-12-10T11:37:41.589Z,12.35
2022-12-10T11:40:16.049Z,12.42
2022-12-10T11:42:56.884Z,12.48
2022-12-10T11:45:38.215Z,12.56
2022-12-10T11:48:22.005Z,12.73
2022-12-10T11:50:53.524Z,13.20
2022-12-10T11:53:24.817Z,14.05
2022-12-10T11:55:53.705Z,15.44
2022-12-10T11:58:45.323Z,16.54
2022-12-10T12:01:27.732Z,17.27
2022-12-10T12:04:14.853Z,18.43
2022-12-10T12:07:02.074Z,19.31
2022-12-10T12:09:49.296Z,19.94
2022-12-10T12:12:35.699Z,20.44
2022-12-10T12:15:25.380Z,20.99
2022-12-10T12:17:58.677Z,21.05
2022-12-10T12:20:31.971Z,20.89
2022-12-10T12:23:15.606Z,20.57
2022-12-10T12:25:48.083Z,20.72
2022-12-10T12:28:31.007Z,20.78
2022-12-10T12:31:03.346Z,20.80
2022-12-10T12:33:43.947Z,20.86
2022-12-10T12:36:42.023Z,20.66
2022-12-10T12:39:26.012Z,20.65
2022-12-10T12:42:02.911Z,20.72
2022-12-10T12:44:51.398Z,20.94
2022-12-10T12:47:37.907Z,21.41
2022-12-10T12:50:12.837Z,21.94
2022-12-10T12:52:44.526Z,22.24
2022-12-10T12:55:18.610Z,22.02
2022-12-10T12:57:50.778Z,21.86
2022-12-10T13:00:20.264Z,21.68
2022-12-10T13:02:48.699Z,21.84
2022-12-10T13:05:23.688Z,21.56
2022-12-10T13:08:11.216Z,21.28
2022-12-10T13:11:00.201Z,21.77
2022-12-10T13:13:39.019Z,22.32
2022-12-10T13:16:26.610Z,22.68
2022-12-10T13:19:15.319Z,22.98
2022-12-10T13:22:11.855Z,22.98
2022-12-10T13:24:40.537Z,22.54
2022-12-10T13:27:11.709Z,22.02
2022-12-10T13:30:00.649Z,21.30
2022-12-10T13:32:32.819Z,20.43
2022-12-10T13:35:10.713Z,19.91
2022-12-10T13:38:05.549Z,19.45
2022-12-10T13:40:53.043Z,18.97
2022-12-10T13:43:59.316Z,18.42
2022-12-10T13:46:31.242Z,17.76
2022-12-10T13:49:01.602Z,17.35
2022-12-10T13:51:48.926Z,17.06
2022-12-10T13:54:36.250Z,16.70
2022-12-10T13:57:19.887Z,16.38
2022-12-10T14:00:13.222Z,16.05
2022-12-10T14:02:58.684Z,15.66
2022-12-10T14:05:27.526Z,15.31
2022-12-10T14:07:57.610Z,15.02
2022-12-10T14:10:29.716Z,14.76
2022-12-10T14:12:59.283Z,14.52
2022-12-10T14:15:28.237Z,14.28
2022-12-10T14:18:18.374Z,14.07
2022-12-10T14:20:48.629Z,13.85
2022-12-10T14:23:36.961Z,13.70
2022-12-10T14:26:11.041Z,13.53
2022-12-10T14:28:40.544Z,13.38
2022-12-10T14:31:13.564Z,13.27
2022-12-10T14:33:42.271Z,13.16
2022-12-10T14:36:16.929Z,13.03
2022-12-10T14:38:47.180Z,12.94
2022-12-10T14:41:18.471Z,12.86
2022-12-10T14:43:47.361Z,12.70
2022-12-10T14:46:18.458Z,12.51
2022-12-10T14:48:48.016Z,12.35
2022-12-10T14:51:18.033Z,12.22
2022-12-10T14:53:47.543Z,12.03
2022-12-10T14:56:28.413Z,11.86
2022-12-10T14:58:57.272Z,11.74
2022-12-10T15:01:29.270Z,11.68
2022-12-10T15:04:00.030Z,11.63
2022-12-10T15:06:28.997Z,11.58
2022-12-10T15:08:58.653Z,11.52
2022-12-10T15:11:28.698Z,11.44
2022-12-10T15:14:00.996Z,11.36
2022-12-10T15:16:31.489Z,11.29
2022-12-10T15:19:21.022Z,11.22
2022-12-10T15:21:50.100Z,11.13
2022-12-10T15:24:20.633Z,11.07
2022-12-10T15:26:51.530Z,11.01
2022-12-10T15:29:27.500Z,10.94
2022-12-10T15:31:58.524Z,10.87
2022-12-10T15:34:28.998Z,10.83
2022-12-10T15:37:02.257Z,10.79
2022-12-10T15:39:38.558Z,10.78
2022-12-10T15:42:07.964Z,10.78
2022-12-10T15:44:41.525Z,10.75
2022-12-10T15:47:26.397Z,10.69
2022-12-10T15:49:56.795Z,10.62
2022-12-10T15:52:25.493Z,10.56
2022-12-10T15:54:54.680Z,10.47
2022-12-10T15:57:31.078Z,10.32
2022-12-10T16:00:00.916Z,10.15
2022-12-10T16:02:41.406Z,9.99
2022-12-10T16:05:27.079Z,9.83
2022-12-10T16:07:56.552Z,9.67
2022-12-10T16:10:25.983Z,9.52
2022-12-10T16:13:05.117Z,9.39
2022-12-10T16:15:46.686Z,9.29
2022-12-10T16:18:15.185Z,9.21
2022-12-10T16:20:43.564Z,9.15
2022-12-10T16:23:12.356Z,9.09
2022-12-10T16:25:45.357Z,9.02
2022-12-10T16:28:15.890Z,8.99
2022-12-10T16:30:47.917Z,8.99
2022-12-10T16:33:19.213Z,9.01
2022-12-10T16:35:47.895Z,9.01
2022-12-10T16:38:16.371Z,9.01
2022-12-10T16:40:45.658Z,9.02
2022-12-10T16:43:16.698Z,9.01
2022-12-10T16:45:45.787Z,9.01
2022-12-10T16:48:14.786Z,8.99
2022-12-10T16:50:44.192Z,8.99
2022-12-10T16:53:37.151Z,8.98
2022-12-10T16:56:06.552Z,9.00
2022-12-10T16:58:35.134Z,9.01
2022-12-10T17:01:03.647Z,9.02
2022-12-10T17:03:32.814Z,9.03
2022-12-10T17:06:03.362Z,9.04
2022-12-10T17:08:32.004Z,9.06
2022-12-10T17:11:19.356Z,9.09
2022-12-10T17:13:48.555Z,9.13
2022-12-10T17:16:20.265Z,9.16
2022-12-10T17:18:49.779Z,9.21
2022-12-10T17:21:18.300Z,9.24
2022-12-10T17:23:46.896Z,9.27
2022-12-10T17:26:35.849Z,9.30
2022-12-10T17:29:27.168Z,9.32
2022-12-10T17:31:56.115Z,9.35
2022-12-10T17:34:24.951Z,9.36
2022-12-10T17:36:53.331Z,9.36
2022-12-10T17:39:23.291Z,9.36
2022-12-10T17:41:52.443Z,9.37
2022-12-10T17:44:23.038Z,9.38
2022-12-10T17:46:51.734Z,9.36
2022-12-10T17:49:20.455Z,9.36
2022-12-10T17:51:48.933Z,9.35
2022-12-10T17:54:17.516Z,9.33
2022-12-10T17:56:45.898Z,9.29
2022-12-10T17:59:15.423Z,9.27
2022-12-10T18:01:48.430Z,9.26
2022-12-10T18:04:17.387Z,9.26
2022-12-10T18:06:46.441Z,9.26
2022-12-10T18:09:14.762Z,9.25
2022-12-10T18:11:44.768Z,9.24
2022-12-10T18:14:15.708Z,9.24
2022-12-10T18:16:44.619Z,9.25
2022-12-10T18:19:16.681Z,9.24
2022-12-10T18:21:47.004Z,9.23
2022-12-10T18:24:19.065Z,9.23
2022-12-10T18:26:47.570Z,9.22
2022-12-10T18:29:16.036Z,9.20
2022-12-10T18:31:45.329Z,9.17
2022-12-10T18:34:15.251Z,9.15
2022-12-10T18:36:45.264Z,9.14
2022-12-10T18:39:24.213Z,9.09
2022-12-10T18:41:53.648Z,9.07
2022-12-10T18:44:24.531Z,9.05
2022-12-10T18:46:53.901Z,9.02
2022-12-10T18:49:23.547Z,8.99
2022-12-10T18:51:52.129Z,8.97
2022-12-10T18:54:20.718Z,8.95
2022-12-10T18:57:09.633Z,8.94
2022-12-10T18:59:37.952Z,8.93
2022-12-10T19:02:07.128Z,8.93
2022-12-10T19:04:35.633Z,8.91
2022-12-10T19:07:04.729Z,8.89
2022-12-10T19:09:36.393Z,8.87
2022-12-10T19:12:04.976Z,8.83
2022-12-10T19:14:33.459Z,8.79
2022-12-10T19:17:02.761Z,8.75
2022-12-10T19:19:31.340Z,8.72
2022-12-10T19:21:59.820Z,8.69
2022-12-10T19:24:28.408Z,8.68
2022-12-10T19:26:56.990Z,8.66
2022-12-10T19:29:25.879Z,8.63
2022-12-10T19:31:54.365Z,8.60
2022-12-10T19:34:22.844Z,8.56
2022-12-10T19:36:51.482Z,8.53
2022-12-10T19:39:22.067Z,8.47
2022-12-10T19:41:50.850Z,8.41
2022-12-10T19:44:19.543Z,8.38
2022-12-10T19:46:48.642Z,8.36
2022-12-10T19:49:17.628Z,8.35
2022-12-10T19:51:46.519Z,8.33
2022-12-10T19:54:15.619Z,8.32
2022-12-10T19:56:44.511Z,8.29
2022-12-10T19:59:15.448Z,8.29
2022-12-10T20:01:44.755Z,8.30
2022-12-10T20:04:13.621Z,8.29
2022-12-10T20:06:43.637Z,8.30
2022-12-10T20:09:27.706Z,8.31
2022-12-10T20:11:56.903Z,8.32
2022-12-10T20:14:25.543Z,8.33
2022-12-10T20:16:54.172Z,8.34
2022-12-10T20:19:23.644Z,8.34
2022-12-10T20:21:52.476Z,8.35
2022-12-10T20:24:20.951Z,8.35
2022-12-10T20:26:50.030Z,8.35
2022-12-10T20:29:23.444Z,8.36
2022-12-10T20:31:53.436Z,8.36
2022-12-10T20:34:22.868Z,8.36
2022-12-10T20:36:52.168Z,8.36
2022-12-10T20:39:22.767Z,8.37
2022-12-10T20:41:52.817Z,8.39
2022-12-10T20:44:22.121Z,8.42
2022-12-10T20:46:51.392Z,8.44
2022-12-10T20:49:21.223Z,8.47
2022-12-10T20:51:49.873Z,8.48
2022-12-10T20:54:18.613Z,8.49
2022-12-10T20:56:47.296Z,8.49
2022-12-10T20:59:16.392Z,8.51
2022-12-10T21:01:44.827Z,8.52
2022-12-10T21:04:13.560Z,8.54
2022-12-10T21:06:43.993Z,8.56
2022-12-10T21:09:13.599Z,8.58
2022-12-10T21:11:42.179Z,8.60
2022-12-10T21:14:43.976Z,8.63
2022-12-10T21:17:00.811Z,8.63
2022-12-10T21:19:29.747Z,8.64
2022-12-10T21:21:58.327Z,8.64
2022-12-10T21:24:27.085Z,8.63
2022-12-10T21:26:55.496Z,8.63
2022-12-10T21:29:25.514Z,8.64
2022-12-10T21:31:54.406Z,8.65
2022-12-10T21:34:22.685Z,8.65
2022-12-10T21:36:50.962Z,8.66
2022-12-10T21:39:24.752Z,8.65
2022-12-10T21:42:12.503Z,8.64
2022-12-10T21:44:41.496Z,8.64
2022-12-10T21:47:09.874Z,8.61
2022-12-10T21:49:38.256Z,8.58
2022-12-10T21:52:07.049Z,8.57
2022-12-10T21:54:35.421Z,8.56
2022-12-10T21:57:03.871Z,8.55
2022-12-10T21:59:32.592Z,8.54
2022-12-10T22:02:01.030Z,8.53
2022-12-10T22:04:29.657Z,8.53
2022-12-10T22:06:58.516Z,8.53
2022-12-10T22:09:26.830Z,8.53
2022-12-10T22:11:55.208Z,8.51
2022-12-10T22:14:24.125Z,8.50
2022-12-10T22:16:52.477Z,8.49
2022-12-10T22:19:20.851Z,8.48
2022-12-10T22:21:49.442Z,8.50
2022-12-10T22:24:17.864Z,8.49
2022-12-10T22:26:46.160Z,8.50
2022-12-10T22:29:14.855Z,8.50
2022-12-10T22:31:43.318Z,8.50
2022-12-10T22:34:11.646Z,8.49
2022-12-10T22:36:40.231Z,8.47
2022-12-10T22:39:08.784Z,8.43
2022-12-10T22:41:37.709Z,8.41
2022-12-10T22:44:06.465Z,8.40
2022-12-10T22:46:35.019Z,8.40
2022-12-10T22:49:03.599Z,8.40
2022-12-10T22:51:32.454Z,8.39
2022-12-10T22:54:01.287Z,8.37
2022-12-10T22:56:30.283Z,8.35
2022-12-10T22:58:59.442Z,8.32
2022-12-10T23:01:28.079Z,8.29
2022-12-10T23:03:56.344Z,8.25
2022-12-10T23:06:26.726Z,8.20
2022-12-10T23:08:55.105Z,8.16
2022-12-10T23:11:23.493Z,8.11
2022-12-10T23:13:52.789Z,8.07
2022-12-10T23:16:21.453Z,8.05
2022-12-10T23:18:50.489Z,8.01
2022-12-10T23:21:19.562Z,7.96
2022-12-10T23:23:48.147Z,7.94
2022-12-10T23:26:16.732Z,7.92
2022-12-10T23:28:46.036Z,7.91
2022-12-10T23:31:14.842Z,7.91
2022-12-10T23:33:43.200Z,7.89
2022-12-10T23:36:12.227Z,7.88
2022-12-10T23:38:40.985Z,7.87
2022-12-10T23:41:10.898Z,7.86
2022-12-10T23:43:39.793Z,7.84
2022-12-10T23:46:08.840Z,7.82
2022-12-10T23:48:37.266Z,7.80
2022-12-10T23:51:06.334Z,7.80
2022-12-10T23:53:35.056Z,7.81
2022-12-10T23:56:13.259Z,7.82
2022-12-10T23:58:41.844Z,7.82
